ěÝzenÝ letovÚho provozu ╚eskÚ republiky
OPMET data - Ceska Republika Aktualizace: 10.05.2021 05:31:25  UTC
SIGMET / AIRMET - NIL
Warning / Vystraha - NIL
AIREP - NIL
REG QNH
REGIONAL QNH FORECAST ISSUED 2021-05-10 02:43 AREA VALID FM/TL QNH/HPA/ : LKAA 100300/100600 1007 =
 
METAR / SPECI
METAR LKBC 100530Z AUTO 09007KT CAVOK 11/05 Q1010=
METAR LKCV 100530Z 14016KT CAVOK 15/03 Q1010 NOSIG RMK BLU BLU=
METAR LKKB 100530Z 09006KT CAVOK 13/05 Q1010 NOSIG RMK BLU BLU=
METAR LKKU NIL
METAR LKKV 100500Z 05002KT CAVOK 10/05 Q1009 RMK REG QNH 1007=
METAR LKLN 100530Z AUTO VRB02KT CAVOK 13/09 Q1010=
METAR LKMT 100530Z 20014KT CAVOK 18/01 Q1014 NOSIG RMK REG QNH 1007=
METAR LKNA 100530Z 12011KT CAVOK 12/00 Q1012 NOSIG RMK BLU BLU=
METAR LKPD 100530Z 11007KT CAVOK 15/03 Q1011 NOSIG RMK BLU BLU=
METAR LKPJ 100530Z AUTO 16004KT 120V180 CAVOK 15/06 Q1014=
METAR LKPR 100530Z 11007KT CAVOK 13/06 Q1010 NOSIG RMK REG QNH 1007=
METAR LKTB 100530Z 12012KT CAVOK 15/02 Q1013 NOSIG RMK REG QNH 1007=
METAR LKVO NIL
TAF
TAF LKBC NIL
TAF AMD LKCV 092300Z 1001/1100 14014KT CAVOK      TEMPO 1001/1018 15020KT=
TAF LKKB 092300Z 1000/1100 13008KT CAVOK=
TAF LKKU NIL
TAF LKKV 100500Z 1006/1112 06006KT CAVOK      TEMPO 1010/1015 18006KT      TEMPO 1015/1023 12012KT      PROB30 TEMPO 1015/1023 9999 SCT030TCU      BECMG 1105/1108 15006KT      TEMPO 1108/1112 15012G22KT 9999 SCT030=
TAF LKLN NIL
TAF LKMT 100500Z 1006/1112 21010KT CAVOK      TEMPO 1008/1018 21018G28KT      TEMPO 1108/1112 19014G24KT=
TAF LKNA 092300Z 1000/1100 13016G26KT CAVOK      BECMG 1003/1005 13012G24KT=
TAF AMD LKPD 100400Z 1005/1100 12010KT CAVOK      TEMPO 1008/1015 15014KT=
TAF LKPJ NIL
TAF LKPR 100500Z 1006/1112 12008KT CAVOK=
TAF LKTB 100500Z 1006/1112 12010KT CAVOK      TEMPO 1006/1102 15018G28KT      TEMPO 1108/1112 15018G28KT=
TAF LKVO NIL